sensor_id;sensor_type;location;lat;lon;timestamp;temperature;humidity
14875;DHT22;7529;48.170;17.138;2022-08-24T00:00:31;18.40;99.90
14875;DHT22;7529;48.170;17.138;2022-08-24T00:04:45;18.40;99.90
14875;DHT22;7529;48.170;17.138;2022-08-24T00:08:57;18.40;99.90
14875;DHT22;7529;48.170;17.138;2022-08-24T00:13:09;18.40;99.90
14875;DHT22;7529;48.170;17.138;2022-08-24T00:17:21;18.50;99.90
14875;DHT22;7529;48.170;17.138;2022-08-24T00:21:32;18.50;99.90
14875;DHT22;7529;48.170;17.138;2022-08-24T00:25:44;18.60;99.90
14875;DHT22;7529;48.170;17.138;2022-08-24T00:29:56;18.60;99.90
14875;DHT22;7529;48.170;17.138;2022-08-24T00:34:08;18.60;99.90
14875;DHT22;7529;48.170;17.138;2022-08-24T00:38:20;18.60;99.90
14875;DHT22;7529;48.170;17.138;2022-08-24T00:42:32;18.60;99.90
14875;DHT22;7529;48.170;17.138;2022-08-24T00:51:25;18.60;99.90
14875;DHT22;7529;48.170;17.138;2022-08-24T00:55:45;18.60;99.90
14875;DHT22;7529;48.170;17.138;2022-08-24T01:00:08;18.60;99.90
14875;DHT22;7529;48.170;17.138;2022-08-24T01:04:30;18.60;99.90
14875;DHT22;7529;48.170;17.138;2022-08-24T01:08:45;18.60;99.90
14875;DHT22;7529;48.170;17.138;2022-08-24T01:12:59;18.50;99.90
14875;DHT22;7529;48.170;17.138;2022-08-24T01:17:13;18.50;99.90
14875;DHT22;7529;48.170;17.138;2022-08-24T01:22:13;18.60;99.90
14875;DHT22;7529;48.170;17.138;2022-08-24T01:26:38;18.60;99.90
14875;DHT22;7529;48.170;17.138;2022-08-24T01:31:00;18.60;99.90
14875;DHT22;7529;48.170;17.138;2022-08-24T01:35:12;18.60;99.90
14875;DHT22;7529;48.170;17.138;2022-08-24T01:39:41;18.60;99.90
14875;DHT22;7529;48.170;17.138;2022-08-24T01:43:55;18.60;99.90
14875;DHT22;7529;48.170;17.138;2022-08-24T01:48:07;18.60;99.90
14875;DHT22;7529;48.170;17.138;2022-08-24T01:52:23;18.60;99.90
14875;DHT22;7529;48.170;17.138;2022-08-24T01:56:36;18.60;99.90
14875;DHT22;7529;48.170;17.138;2022-08-24T02:00:48;18.60;99.90
14875;DHT22;7529;48.170;17.138;2022-08-24T02:04:59;18.60;99.90
14875;DHT22;7529;48.170;17.138;2022-08-24T02:09:11;18.60;99.90
14875;DHT22;7529;48.170;17.138;2022-08-24T02:13:23;18.60;99.90
14875;DHT22;7529;48.170;17.138;2022-08-24T02:17:35;18.70;99.90
14875;DHT22;7529;48.170;17.138;2022-08-24T02:21:47;18.60;99.90
14875;DHT22;7529;48.170;17.138;2022-08-24T02:25:59;18.70;99.90
14875;DHT22;7529;48.170;17.138;2022-08-24T02:30:11;18.70;99.90
14875;DHT22;7529;48.170;17.138;2022-08-24T02:34:23;18.70;99.90
14875;DHT22;7529;48.170;17.138;2022-08-24T02:38:35;18.70;99.90
14875;DHT22;7529;48.170;17.138;2022-08-24T02:42:51;18.70;99.90
14875;DHT22;7529;48.170;17.138;2022-08-24T02:47:03;18.60;99.90
14875;DHT22;7529;48.170;17.138;2022-08-24T02:55:32;18.60;99.90
14875;DHT22;7529;48.170;17.138;2022-08-24T02:59:43;18.50;99.90
14875;DHT22;7529;48.170;17.138;2022-08-24T03:03:55;18.50;99.90
14875;DHT22;7529;48.170;17.138;2022-08-24T03:08:08;18.60;99.90
14875;DHT22;7529;48.170;17.138;2022-08-24T03:12:20;18.50;99.90
14875;DHT22;7529;48.170;17.138;2022-08-24T03:16:31;18.50;99.90
14875;DHT22;7529;48.170;17.138;2022-08-24T03:20:44;18.50;99.90
14875;DHT22;7529;48.170;17.138;2022-08-24T03:24:56;18.50;99.90
14875;DHT22;7529;48.170;17.138;2022-08-24T03:29:08;18.40;99.90
14875;DHT22;7529;48.170;17.138;2022-08-24T03:33:19;18.50;99.90
14875;DHT22;7529;48.170;17.138;2022-08-24T03:37:32;18.50;99.90
14875;DHT22;7529;48.170;17.138;2022-08-24T03:41:43;18.50;99.90
14875;DHT22;7529;48.170;17.138;2022-08-24T03:45:55;18.50;99.90
14875;DHT22;7529;48.170;17.138;2022-08-24T03:50:07;18.50;99.90
14875;DHT22;7529;48.170;17.138;2022-08-24T03:54:20;18.50;99.90
14875;DHT22;7529;48.170;17.138;2022-08-24T03:58:31;18.50;99.90
14875;DHT22;7529;48.170;17.138;2022-08-24T04:02:44;18.60;99.90
14875;DHT22;7529;48.170;17.138;2022-08-24T04:07:01;18.60;99.90
14875;DHT22;7529;48.170;17.138;2022-08-24T04:11:19;18.50;99.90
14875;DHT22;7529;48.170;17.138;2022-08-24T04:15:33;18.60;99.90
14875;DHT22;7529;48.170;17.138;2022-08-24T04:19:53;18.70;99.90
14875;DHT22;7529;48.170;17.138;2022-08-24T04:24:10;18.70;99.90
14875;DHT22;7529;48.170;17.138;2022-08-24T04:28:22;18.80;99.90
14875;DHT22;7529;48.170;17.138;2022-08-24T04:32:34;18.80;99.90
14875;DHT22;7529;48.170;17.138;2022-08-24T04:36:45;18.90;99.90
14875;DHT22;7529;48.170;17.138;2022-08-24T04:40:59;19.00;99.90
14875;DHT22;7529;48.170;17.138;2022-08-24T04:45:10;19.00;99.90
14875;DHT22;7529;48.170;17.138;2022-08-24T04:49:22;19.10;99.90
14875;DHT22;7529;48.170;17.138;2022-08-24T04:53:34;19.20;99.90
14875;DHT22;7529;48.170;17.138;2022-08-24T04:57:48;19.30;99.90
14875;DHT22;7529;48.170;17.138;2022-08-24T05:01:59;19.40;99.90
14875;DHT22;7529;48.170;17.138;2022-08-24T05:06:12;19.40;99.90
14875;DHT22;7529;48.170;17.138;2022-08-24T05:10:25;19.50;99.90
14875;DHT22;7529;48.170;17.138;2022-08-24T05:14:37;19.60;99.90
14875;DHT22;7529;48.170;17.138;2022-08-24T05:18:49;19.70;99.90
14875;DHT22;7529;48.170;17.138;2022-08-24T05:23:02;19.90;99.90
14875;DHT22;7529;48.170;17.138;2022-08-24T05:27:14;20.00;99.90
14875;DHT22;7529;48.170;17.138;2022-08-24T05:31:30;20.20;99.90
14875;DHT22;7529;48.170;17.138;2022-08-24T05:35:47;20.40;99.90
14875;DHT22;7529;48.170;17.138;2022-08-24T05:40:01;20.70;99.90
14875;DHT22;7529;48.170;17.138;2022-08-24T05:44:17;20.80;99.90
14875;DHT22;7529;48.170;17.138;2022-08-24T05:48:31;20.90;99.90
14875;DHT22;7529;48.170;17.138;2022-08-24T05:52:51;21.10;99.90
14875;DHT22;7529;48.170;17.138;2022-08-24T05:57:04;21.30;99.90
14875;DHT22;7529;48.170;17.138;2022-08-24T06:01:25;21.50;99.90
14875;DHT22;7529;48.170;17.138;2022-08-24T06:05:40;21.90;99.90
14875;DHT22;7529;48.170;17.138;2022-08-24T06:09:52;22.30;99.90
14875;DHT22;7529;48.170;17.138;2022-08-24T06:14:13;22.40;99.90
14875;DHT22;7529;48.170;17.138;2022-08-24T06:18:39;22.50;99.90
14875;DHT22;7529;48.170;17.138;2022-08-24T06:22:52;22.50;99.90
14875;DHT22;7529;48.170;17.138;2022-08-24T06:27:06;22.50;99.90
14875;DHT22;7529;48.170;17.138;2022-08-24T06:31:42;22.50;99.90
14875;DHT22;7529;48.170;17.138;2022-08-24T06:35:55;22.60;99.90
14875;DHT22;7529;48.170;17.138;2022-08-24T06:40:07;22.70;99.90
14875;DHT22;7529;48.170;17.138;2022-08-24T06:44:20;22.70;99.90
14875;DHT22;7529;48.170;17.138;2022-08-24T06:48:39;22.70;99.90
14875;DHT22;7529;48.170;17.138;2022-08-24T06:52:51;22.70;99.90
14875;DHT22;7529;48.170;17.138;2022-08-24T06:57:04;22.70;99.90
14875;DHT22;7529;48.170;17.138;2022-08-24T07:01:21;22.80;99.90
14875;DHT22;7529;48.170;17.138;2022-08-24T07:05:35;22.90;99.90
14875;DHT22;7529;48.170;17.138;2022-08-24T07:10:03;23.00;99.90
14875;DHT22;7529;48.170;17.138;2022-08-24T07:14:16;23.00;99.90
14875;DHT22;7529;48.170;17.138;2022-08-24T07:18:28;23.20;99.90
14875;DHT22;7529;48.170;17.138;2022-08-24T07:22:40;23.40;99.50
14875;DHT22;7529;48.170;17.138;2022-08-24T07:26:53;23.50;98.80
14875;DHT22;7529;48.170;17.138;2022-08-24T07:31:06;23.70;98.20
14875;DHT22;7529;48.170;17.138;2022-08-24T07:35:27;23.90;97.50
14875;DHT22;7529;48.170;17.138;2022-08-24T07:39:39;24.20;96.40
14875;DHT22;7529;48.170;17.138;2022-08-24T07:43:51;24.40;95.80
14875;DHT22;7529;48.170;17.138;2022-08-24T07:48:04;24.50;95.10
14875;DHT22;7529;48.170;17.138;2022-08-24T07:52:25;24.60;93.80
14875;DHT22;7529;48.170;17.138;2022-08-24T07:56:38;24.60;93.20
14875;DHT22;7529;48.170;17.138;2022-08-24T08:00:51;25.00;92.70
14875;DHT22;7529;48.170;17.138;2022-08-24T08:05:05;25.10;92.20
14875;DHT22;7529;48.170;17.138;2022-08-24T08:09:17;25.20;91.40
14875;DHT22;7529;48.170;17.138;2022-08-24T08:13:30;25.40;90.80
14875;DHT22;7529;48.170;17.138;2022-08-24T08:17:42;25.40;90.00
14875;DHT22;7529;48.170;17.138;2022-08-24T08:21:55;26.30;87.20
14875;DHT22;7529;48.170;17.138;2022-08-24T09:30:12;30.40;80.00
14875;DHT22;7529;48.170;17.138;2022-08-24T09:39:36;36.60;44.70
14875;DHT22;7529;48.170;17.138;2022-08-24T10:35:01;41.20;39.00
14875;DHT22;7529;48.170;17.138;2022-08-24T10:40:05;39.90;39.40
14875;DHT22;7529;48.170;17.138;2022-08-24T10:44:28;38.50;40.60
14875;DHT22;7529;48.170;17.138;2022-08-24T10:53:30;38.70;39.90
14875;DHT22;7529;48.170;17.138;2022-08-24T10:58:12;38.70;40.20
14875;DHT22;7529;48.170;17.138;2022-08-24T12:35:54;39.00;39.80
14875;DHT22;7529;48.170;17.138;2022-08-24T12:49:42;44.40;31.70
14875;DHT22;7529;48.170;17.138;2022-08-24T13:03:00;43.20;31.60
14875;DHT22;7529;48.170;17.138;2022-08-24T13:11:32;40.10;33.10
14875;DHT22;7529;48.170;17.138;2022-08-24T13:15:55;41.60;32.70
14875;DHT22;7529;48.170;17.138;2022-08-24T13:20:18;43.40;32.00
14875;DHT22;7529;48.170;17.138;2022-08-24T13:24:43;45.20;31.50
14875;DHT22;7529;48.170;17.138;2022-08-24T13:28:59;46.00;31.00
14875;DHT22;7529;48.170;17.138;2022-08-24T13:33:15;45.60;30.90
14875;DHT22;7529;48.170;17.138;2022-08-24T13:37:28;45.10;30.50
14875;DHT22;7529;48.170;17.138;2022-08-24T13:46:23;46.00;30.30
14875;DHT22;7529;48.170;17.138;2022-08-24T14:00:48;44.50;30.80
14875;DHT22;7529;48.170;17.138;2022-08-24T14:25:23;43.00;31.20
14875;DHT22;7529;48.170;17.138;2022-08-24T14:29:40;43.10;31.40
14875;DHT22;7529;48.170;17.138;2022-08-24T14:34:13;43.20;31.30
14875;DHT22;7529;48.170;17.138;2022-08-24T14:58:48;41.70;32.10
14875;DHT22;7529;48.170;17.138;2022-08-24T15:02:51;41.30;32.20
14875;DHT22;7529;48.170;17.138;2022-08-24T15:07:24;40.70;32.50
14875;DHT22;7529;48.170;17.138;2022-08-24T15:11:38;40.20;32.80
14875;DHT22;7529;48.170;17.138;2022-08-24T15:16:27;40.20;33.00
14875;DHT22;7529;48.170;17.138;2022-08-24T15:25:44;40.50;33.00
14875;DHT22;7529;48.170;17.138;2022-08-24T15:30:03;40.50;32.90
14875;DHT22;7529;48.170;17.138;2022-08-24T16:00:46;39.50;33.40
14875;DHT22;7529;48.170;17.138;2022-08-24T16:18:02;32.90;38.40
